createdAt,value
2019-02-26T00:01:07.649Z,32.50
2019-02-26T00:04:11.099Z,32.50
2019-02-26T00:07:18.221Z,32.50
2019-02-26T00:10:24.596Z,32.50
2019-02-26T00:13:27.099Z,32.49
2019-02-26T00:16:35.355Z,32.50
2019-02-26T00:19:35.589Z,32.50
2019-02-26T00:22:41.098Z,32.52
2019-02-26T00:25:44.441Z,32.54
2019-02-26T00:28:47.914Z,32.51
2019-02-26T00:31:52.934Z,32.50
2019-02-26T00:34:59.621Z,32.51
2019-02-26T00:38:03.126Z,32.50
2019-02-26T00:41:06.635Z,32.53
2019-02-26T00:44:11.166Z,32.51
2019-02-26T00:47:14.657Z,32.50
2019-02-26T00:50:18.149Z,32.50
2019-02-26T00:53:23.641Z,32.51
2019-02-26T00:56:29.820Z,32.52
2019-02-26T00:59:36.394Z,32.51
2019-02-26T01:02:39.325Z,32.50
2019-02-26T01:05:43.627Z,32.52
2019-02-26T01:08:47.989Z,32.51
2019-02-26T01:11:51.965Z,32.51
2019-02-26T01:14:56.657Z,32.55
2019-02-26T01:18:01.414Z,32.53
2019-02-26T01:21:05.344Z,32.53
2019-02-26T01:24:08.862Z,32.50
2019-02-26T01:27:12.349Z,32.53
2019-02-26T01:30:21.336Z,32.54
2019-02-26T01:33:22.293Z,32.54
2019-02-26T01:36:26.375Z,32.52
2019-02-26T01:39:29.839Z,32.52
2019-02-26T01:42:33.343Z,32.54
2019-02-26T01:45:36.941Z,32.55
2019-02-26T01:48:41.295Z,32.53
2019-02-26T01:51:47.373Z,32.53
2019-02-26T01:54:53.343Z,32.53
2019-02-26T01:57:58.703Z,32.53
2019-02-26T02:01:01.914Z,32.53
2019-02-26T02:04:08.218Z,32.54
2019-02-26T02:07:11.914Z,32.52
2019-02-26T02:10:15.396Z,32.54
2019-02-26T02:13:19.859Z,32.51
2019-02-26T02:16:24.195Z,32.54
2019-02-26T02:19:30.195Z,32.52
2019-02-26T02:22:35.259Z,32.52
2019-02-26T02:25:40.794Z,32.54
2019-02-26T02:28:45.427Z,32.52
2019-02-26T02:31:48.912Z,32.52
2019-02-26T02:34:52.432Z,32.53
2019-02-26T02:37:57.073Z,32.54
2019-02-26T02:41:01.073Z,32.52
2019-02-26T02:44:04.561Z,32.54
2019-02-26T02:47:09.352Z,32.55
2019-02-26T02:50:15.105Z,32.55
2019-02-26T02:53:21.038Z,32.53
2019-02-26T02:56:24.922Z,32.54
2019-02-26T02:59:30.890Z,32.55
2019-02-26T03:02:37.759Z,32.55
2019-02-26T03:05:41.312Z,32.54
2019-02-26T03:08:45.214Z,32.53
2019-02-26T03:11:52.535Z,32.55
2019-02-26T03:14:56.364Z,32.53
2019-02-26T03:18:00.100Z,32.54
2019-02-26T03:21:04.855Z,32.54
2019-02-26T03:24:10.463Z,32.53
2019-02-26T03:27:13.633Z,32.52
2019-02-26T03:30:26.295Z,32.52
2019-02-26T03:33:24.434Z,32.53
2019-02-26T03:36:28.042Z,32.53
2019-02-26T03:39:31.554Z,32.54
2019-02-26T03:42:36.477Z,32.53
2019-02-26T03:45:40.278Z,32.55
2019-02-26T03:48:43.739Z,32.56
2019-02-26T03:51:47.384Z,32.53
2019-02-26T03:54:50.871Z,32.56
2019-02-26T03:57:56.638Z,32.55
2019-02-26T04:01:04.521Z,32.53
2019-02-26T04:04:05.493Z,32.53
2019-02-26T04:07:10.645Z,32.55
2019-02-26T04:10:14.357Z,32.55
2019-02-26T04:13:17.826Z,32.55
2019-02-26T04:16:21.343Z,32.53
2019-02-26T04:19:26.753Z,32.56
2019-02-26T04:22:39.228Z,32.54
2019-02-26T04:26:11.054Z,32.54
2019-02-26T04:29:52.894Z,32.55
2019-02-26T04:33:32.906Z,32.52
2019-02-26T04:37:30.722Z,32.54
2019-02-26T04:41:17.950Z,32.52
2019-02-26T04:44:50.055Z,32.53
2019-02-26T04:47:54.201Z,32.51
2019-02-26T04:50:56.361Z,32.52
2019-02-26T04:54:02.009Z,32.52
2019-02-26T04:57:05.238Z,32.52
2019-02-26T05:00:10.516Z,32.54
2019-02-26T05:03:16.439Z,32.53
2019-02-26T05:06:19.191Z,32.54
2019-02-26T05:09:27.277Z,32.52
2019-02-26T05:12:34.149Z,32.53
2019-02-26T05:15:36.259Z,32.53
2019-02-26T05:18:40.131Z,32.54
2019-02-26T05:21:43.684Z,32.53
2019-02-26T05:24:48.254Z,32.51
2019-02-26T05:27:52.501Z,32.53
2019-02-26T05:30:55.995Z,32.55
2019-02-26T05:34:00.077Z,32.53
2019-02-26T05:37:04.802Z,32.52
2019-02-26T05:40:12.622Z,32.53
2019-02-26T05:43:14.332Z,32.54
2019-02-26T05:46:19.538Z,32.54
2019-02-26T05:49:23.195Z,32.55
2019-02-26T05:52:27.234Z,32.52
2019-02-26T05:55:32.156Z,32.54
2019-02-26T05:58:36.748Z,32.54
2019-02-26T06:01:43.704Z,32.52
2019-02-26T06:04:48.274Z,32.54
2019-02-26T06:07:52.777Z,32.56
2019-02-26T06:10:56.478Z,32.55
2019-02-26T06:14:03.995Z,32.54
2019-02-26T06:17:07.182Z,32.54
2019-02-26T06:20:13.875Z,32.50
2019-02-26T06:23:17.436Z,32.54
2019-02-26T06:26:21.014Z,32.51
2019-02-26T06:29:27.235Z,32.53
2019-02-26T06:32:32.307Z,32.51
2019-02-26T06:35:36.013Z,32.51
2019-02-26T06:38:41.495Z,32.51
2019-02-26T06:41:46.844Z,32.54
2019-02-26T06:44:51.504Z,32.54
2019-02-26T06:47:56.384Z,32.52
2019-02-26T06:51:02.182Z,32.55
2019-02-26T06:54:05.753Z,32.54
2019-02-26T06:57:10.282Z,32.53
2019-02-26T07:00:16.240Z,32.52
2019-02-26T07:03:19.750Z,32.54
2019-02-26T07:06:25.497Z,32.55
2019-02-26T07:09:29.643Z,32.51
2019-02-26T07:12:33.118Z,32.54
2019-02-26T07:15:37.648Z,32.56
2019-02-26T07:18:41.160Z,32.51
2019-02-26T07:21:45.593Z,32.53
2019-02-26T07:24:51.947Z,32.50
2019-02-26T07:27:58.058Z,32.52
2019-02-26T07:31:02.693Z,32.51
2019-02-26T07:34:06.837Z,32.53
2019-02-26T07:37:11.688Z,32.53
2019-02-26T07:40:16.346Z,32.53
2019-02-26T07:43:22.632Z,32.52
2019-02-26T07:46:26.388Z,32.54
2019-02-26T07:49:29.874Z,32.54
2019-02-26T07:52:33.387Z,32.56
2019-02-26T07:55:38.192Z,32.70
2019-02-26T07:58:43.110Z,33.06
2019-02-26T08:01:47.881Z,33.12
2019-02-26T08:04:52.099Z,33.06
2019-02-26T08:07:56.554Z,33.24
2019-02-26T08:11:00.432Z,33.14
2019-02-26T08:14:04.012Z,33.15
2019-02-26T08:17:07.551Z,33.30
2019-02-26T08:20:14.835Z,33.24
2019-02-26T08:23:19.868Z,33.34
2019-02-26T08:26:24.432Z,33.33
2019-02-26T08:29:31.308Z,33.22
2019-02-26T08:32:34.452Z,33.29
2019-02-26T08:35:37.992Z,33.38
2019-02-26T08:38:41.567Z,33.40
2019-02-26T08:42:04.760Z,33.34
2019-02-26T08:45:12.472Z,33.41
2019-02-26T08:48:19.717Z,33.41
2019-02-26T08:51:22.765Z,33.31
2019-02-26T08:54:28.415Z,33.42
2019-02-26T08:57:31.759Z,33.41
2019-02-26T09:00:35.243Z,33.44
2019-02-26T09:03:40.938Z,33.46
2019-02-26T09:06:44.413Z,33.42
2019-02-26T09:09:49.900Z,33.41
2019-02-26T09:12:53.474Z,33.39
2019-02-26T09:15:58.784Z,33.40
2019-02-26T09:19:02.489Z,33.41
2019-02-26T09:22:09.679Z,33.42
2019-02-26T09:25:11.542Z,33.41
2019-02-26T09:28:15.245Z,33.48
2019-02-26T09:31:18.845Z,33.44
2019-02-26T09:34:25.964Z,33.47
2019-02-26T09:37:27.523Z,33.46
2019-02-26T09:40:34.246Z,33.41
2019-02-26T09:43:38.639Z,33.41
2019-02-26T09:46:43.846Z,33.46
2019-02-26T09:49:47.802Z,33.44
2019-02-26T09:52:55.134Z,33.43
2019-02-26T09:55:57.510Z,33.25
2019-02-26T09:59:02.461Z,33.16
2019-02-26T10:02:06.366Z,33.17
2019-02-26T10:05:11.653Z,33.14
2019-02-26T10:08:17.339Z,33.08
2019-02-26T10:11:21.398Z,33.07
2019-02-26T10:14:26.952Z,33.04
2019-02-26T10:17:33.448Z,33.04
2019-02-26T10:20:36.374Z,32.96
2019-02-26T10:23:39.885Z,32.96
2019-02-26T10:26:43.417Z,32.98
2019-02-26T10:29:49.955Z,33.18
2019-02-26T10:32:53.676Z,33.49
2019-02-26T10:35:57.169Z,33.52
2019-02-26T10:39:02.803Z,33.45
2019-02-26T10:42:07.213Z,33.42
2019-02-26T10:45:10.833Z,33.40
2019-02-26T10:48:18.559Z,33.36
2019-02-26T10:51:26.021Z,33.26
2019-02-26T10:54:25.221Z,33.26
2019-02-26T10:57:30.970Z,33.24
2019-02-26T11:00:37.540Z,33.18
2019-02-26T11:03:41.662Z,33.21
2019-02-26T11:06:46.881Z,33.15
2019-02-26T11:09:53.009Z,33.07
2019-02-26T11:12:58.653Z,33.06
2019-02-26T11:16:02.999Z,33.08
2019-02-26T11:19:07.508Z,32.94
2019-02-26T11:22:11.799Z,32.77
2019-02-26T11:25:17.929Z,32.67
2019-02-26T11:28:20.836Z,32.59
2019-02-26T11:31:25.655Z,32.52
2019-02-26T11:34:31.474Z,32.52
2019-02-26T11:37:34.489Z,32.47
2019-02-26T11:40:38.192Z,32.42
2019-02-26T11:43:42.105Z,32.65
2019-02-26T11:46:46.745Z,32.74
2019-02-26T11:49:52.078Z,32.73
2019-02-26T11:52:55.622Z,32.65
2019-02-26T11:56:00.074Z,32.77
2019-02-26T11:59:08.681Z,32.70
2019-02-26T12:02:11.646Z,32.64
2019-02-26T12:05:16.190Z,32.83
2019-02-26T12:08:22.339Z,32.68
2019-02-26T12:11:25.034Z,32.55
2019-02-26T12:14:29.538Z,32.47
2019-02-26T12:17:34.683Z,32.36
2019-02-26T12:20:40.495Z,32.39
2019-02-26T12:23:44.595Z,32.26
2019-02-26T12:26:50.001Z,32.29
2019-02-26T12:29:54.584Z,32.37
2019-02-26T12:32:58.128Z,32.66
2019-02-26T12:36:05.192Z,32.85
2019-02-26T12:39:08.997Z,32.84
2019-02-26T12:42:13.978Z,32.86
2019-02-26T12:45:17.876Z,32.80
2019-02-26T12:48:22.842Z,32.80
2019-02-26T12:51:28.091Z,32.84
2019-02-26T12:54:33.484Z,32.76
2019-02-26T12:57:39.237Z,32.79
2019-02-26T13:00:42.751Z,32.88
2019-02-26T13:03:51.002Z,32.92
2019-02-26T13:06:51.992Z,32.94
2019-02-26T13:10:02.751Z,32.93
2019-02-26T13:13:07.810Z,32.98
2019-02-26T13:16:09.469Z,32.98
2019-02-26T13:19:12.987Z,32.99
2019-02-26T13:22:20.268Z,32.96
2019-02-26T13:25:26.865Z,32.96
2019-02-26T13:31:37.061Z,33.03
2019-02-26T13:34:38.982Z,32.97
2019-02-26T13:37:42.572Z,33.03
2019-02-26T13:40:46.150Z,33.05
2019-02-26T13:43:49.785Z,33.08
2019-02-26T13:46:54.318Z,33.02
2019-02-26T13:49:57.878Z,32.85
2019-02-26T13:53:01.515Z,32.78
2019-02-26T13:56:05.017Z,32.74
2019-02-26T13:59:08.646Z,32.68
2019-02-26T14:02:13.268Z,32.63
2019-02-26T14:05:17.797Z,32.63
2019-02-26T14:08:21.503Z,32.97
2019-02-26T14:11:25.003Z,32.99
2019-02-26T14:14:28.484Z,33.07
2019-02-26T14:17:31.994Z,33.08
2019-02-26T14:20:35.473Z,33.12
2019-02-26T14:23:38.984Z,33.15
2019-02-26T14:26:42.481Z,33.16
2019-02-26T14:29:46.514Z,33.17
2019-02-26T14:32:50.135Z,33.21
2019-02-26T14:35:53.600Z,33.18
2019-02-26T14:38:57.135Z,33.24
2019-02-26T14:42:00.854Z,33.18
2019-02-26T14:45:06.332Z,33.17
2019-02-26T14:48:10.940Z,33.15
2019-02-26T14:51:14.712Z,33.44
2019-02-26T14:54:18.295Z,33.26
2019-02-26T14:57:21.807Z,33.28
2019-02-26T15:00:27.501Z,33.20
2019-02-26T15:03:31.047Z,33.40
2019-02-26T15:06:34.556Z,33.49
2019-02-26T15:09:38.078Z,33.42
2019-02-26T15:12:41.545Z,33.40
2019-02-26T15:15:45.306Z,33.40
2019-02-26T15:18:48.767Z,33.41
2019-02-26T15:21:52.275Z,33.49
2019-02-26T15:24:55.796Z,33.49
2019-02-26T15:28:04.913Z,33.48
2019-02-26T15:31:05.803Z,33.52
2019-02-26T15:34:09.343Z,33.53
2019-02-26T15:37:12.864Z,33.34
2019-02-26T15:40:16.379Z,33.28
2019-02-26T15:43:19.835Z,33.34
2019-02-26T15:46:24.555Z,33.84
2019-02-26T15:49:29.197Z,33.80
2019-02-26T15:52:33.492Z,33.91
2019-02-26T15:55:37.387Z,34.14
2019-02-26T15:58:41.038Z,34.14
2019-02-26T16:01:44.552Z,34.12
2019-02-26T16:04:48.068Z,34.11
2019-02-26T16:07:51.640Z,34.10
2019-02-26T16:10:57.505Z,34.12
2019-02-26T16:14:00.998Z,34.08
2019-02-26T16:17:06.643Z,34.09
2019-02-26T16:20:12.627Z,33.99
2019-02-26T16:23:17.035Z,33.79
2019-02-26T16:26:20.561Z,33.72
2019-02-26T16:29:24.130Z,33.63
2019-02-26T16:32:27.731Z,33.57
2019-02-26T16:35:31.428Z,33.52
2019-02-26T16:38:34.982Z,33.46
2019-02-26T16:41:39.005Z,33.39
2019-02-26T16:44:42.557Z,33.36
2019-02-26T16:47:48.679Z,33.31
2019-02-26T16:50:54.492Z,33.36
2019-02-26T16:53:58.007Z,33.63
2019-02-26T16:57:01.488Z,34.13
2019-02-26T17:00:05.291Z,34.22
2019-02-26T17:03:08.907Z,34.24
2019-02-26T17:06:12.887Z,34.29
2019-02-26T17:09:16.503Z,34.26
2019-02-26T17:12:20.103Z,34.22
2019-02-26T17:15:26.938Z,34.23
2019-02-26T17:18:30.693Z,34.22
2019-02-26T17:21:34.275Z,34.21
2019-02-26T17:24:37.907Z,34.33
2019-02-26T17:27:41.650Z,34.34
2019-02-26T17:30:45.232Z,34.30
2019-02-26T17:33:48.807Z,34.25
2019-02-26T17:36:52.256Z,34.22
2019-02-26T17:39:55.810Z,34.16
2019-02-26T17:42:59.321Z,34.03
2019-02-26T17:46:02.934Z,34.05
2019-02-26T17:49:06.575Z,34.09
2019-02-26T17:52:10.032Z,34.11
2019-02-26T17:55:16.392Z,34.07
2019-02-26T17:58:19.904Z,34.07
2019-02-26T18:01:23.425Z,34.08
2019-02-26T18:04:27.489Z,34.08
2019-02-26T18:07:31.216Z,34.09
2019-02-26T18:10:36.581Z,34.11
2019-02-26T18:13:40.120Z,34.06
2019-02-26T18:16:43.799Z,34.09
2019-02-26T18:19:49.434Z,34.04
2019-02-26T18:22:53.442Z,34.02
2019-02-26T18:25:56.958Z,34.00
2019-02-26T18:29:00.441Z,33.91
2019-02-26T18:32:03.942Z,34.00
2019-02-26T18:35:07.388Z,33.99
2019-02-26T18:38:10.935Z,34.00
2019-02-26T18:41:15.481Z,33.94
2019-02-26T18:44:20.522Z,34.04
2019-02-26T18:47:24.339Z,33.99
2019-02-26T18:50:28.739Z,33.96
2019-02-26T18:53:32.797Z,33.95
2019-02-26T18:56:38.232Z,33.92
2019-02-26T18:59:41.603Z,33.93
2019-02-26T19:02:45.104Z,33.93
2019-02-26T19:05:54.047Z,33.98
2019-02-26T19:08:54.976Z,33.96
2019-02-26T19:11:58.468Z,33.93
2019-02-26T19:15:01.970Z,33.93
2019-02-26T19:18:05.479Z,33.89
2019-02-26T19:21:09.986Z,33.92
2019-02-26T19:24:13.498Z,33.90
2019-02-26T19:27:19.503Z,33.94
2019-02-26T19:30:23.472Z,33.92
2019-02-26T19:33:27.129Z,33.93
2019-02-26T19:36:30.778Z,33.93
2019-02-26T19:39:34.319Z,33.94
2019-02-26T19:42:37.728Z,33.92
2019-02-26T19:45:44.011Z,33.89
2019-02-26T19:48:46.658Z,33.90
2019-02-26T19:51:50.148Z,33.94
2019-02-26T19:54:54.680Z,33.93
2019-02-26T19:57:58.180Z,33.92
2019-02-26T20:01:01.658Z,33.92
2019-02-26T20:04:05.137Z,33.91
2019-02-26T20:07:08.670Z,33.90
2019-02-26T20:10:15.029Z,33.87
2019-02-26T20:13:17.957Z,33.88
2019-02-26T20:16:21.516Z,33.90
2019-02-26T20:19:26.138Z,33.89
2019-02-26T20:22:30.566Z,33.88
2019-02-26T20:25:34.804Z,33.90
2019-02-26T20:28:38.325Z,33.88
2019-02-26T20:31:41.795Z,33.84
2019-02-26T20:34:45.367Z,33.85
2019-02-26T20:37:48.991Z,33.89
2019-02-26T20:40:52.518Z,33.89
2019-02-26T20:43:56.047Z,33.80
2019-02-26T20:46:59.515Z,33.87
2019-02-26T20:50:03.467Z,33.89
2019-02-26T20:53:07.116Z,33.81
2019-02-26T20:56:10.649Z,33.69
2019-02-26T20:59:17.620Z,33.62
2019-02-26T21:02:19.469Z,33.56
2019-02-26T21:05:24.886Z,33.52
2019-02-26T21:08:30.742Z,33.49
2019-02-26T21:11:33.638Z,33.49
2019-02-26T21:14:41.057Z,33.43
2019-02-26T21:17:42.909Z,33.44
2019-02-26T21:20:46.405Z,33.41
2019-02-26T21:23:50.029Z,33.40
2019-02-26T21:26:53.623Z,33.39
2019-02-26T21:29:58.122Z,33.37
2019-02-26T21:33:01.649Z,33.34
2019-02-26T21:36:06.162Z,33.34
2019-02-26T21:39:11.599Z,33.36
2019-02-26T21:42:16.220Z,33.34
2019-02-26T21:45:19.736Z,33.35
2019-02-26T21:48:23.200Z,33.32
2019-02-26T21:51:26.633Z,33.32
2019-02-26T21:54:31.262Z,33.33
2019-02-26T21:57:34.769Z,33.32
2019-02-26T22:00:39.025Z,33.32
2019-02-26T22:03:43.293Z,33.32
2019-02-26T22:06:47.935Z,33.32
2019-02-26T22:09:52.398Z,33.31
2019-02-26T22:12:56.752Z,33.32
2019-02-26T22:16:00.883Z,33.30
2019-02-26T22:19:04.737Z,33.30
2019-02-26T22:22:10.747Z,33.34
2019-02-26T22:25:17.124Z,33.31
2019-02-26T22:28:19.599Z,33.31
2019-02-26T22:31:23.111Z,33.30
2019-02-26T22:34:26.601Z,33.33
2019-02-26T22:37:30.095Z,33.30
2019-02-26T22:40:34.247Z,33.32
2019-02-26T22:43:37.922Z,33.29
2019-02-26T22:46:41.527Z,33.30
2019-02-26T22:49:45.113Z,33.30
2019-02-26T22:52:48.690Z,33.31
2019-02-26T22:55:52.136Z,33.28
2019-02-26T22:58:55.637Z,33.33
2019-02-26T23:01:59.139Z,33.35
2019-02-26T23:05:02.637Z,33.34
2019-02-26T23:08:09.584Z,33.32
2019-02-26T23:11:13.124Z,33.31
2019-02-26T23:14:16.834Z,33.32
2019-02-26T23:17:24.714Z,33.29
2019-02-26T23:20:26.694Z,33.30
2019-02-26T23:23:30.204Z,33.34
2019-02-26T23:26:33.907Z,33.37
2019-02-26T23:29:43.294Z,33.33
2019-02-26T23:32:46.848Z,33.33
2019-02-26T23:35:54.817Z,33.33
2019-02-26T23:38:55.781Z,33.33
2019-02-26T23:41:59.288Z,33.33
2019-02-26T23:45:02.743Z,33.34
2019-02-26T23:48:08.040Z,33.33
2019-02-26T23:51:11.529Z,33.35
2019-02-26T23:54:15.046Z,33.33
2019-02-26T23:57:18.536Z,33.35
